sensor_id;sensor_type;location;lat;lon;timestamp;P1;durP1;ratioP1;P2;durP2;ratioP2
65206;SDS011;58477;48.072;11.970;2022-12-07T00:01:04;12.38;;;7.20;;
65206;SDS011;58477;48.072;11.970;2022-12-07T00:03:34;14.32;;;8.80;;
65206;SDS011;58477;48.072;11.970;2022-12-07T00:06:02;13.85;;;8.57;;
65206;SDS011;58477;48.072;11.970;2022-12-07T00:08:29;14.13;;;8.38;;
65206;SDS011;58477;48.072;11.970;2022-12-07T00:10:54;14.25;;;8.05;;
65206;SDS011;58477;48.072;11.970;2022-12-07T00:13:20;12.52;;;8.27;;
65206;SDS011;58477;48.072;11.970;2022-12-07T00:15:45;12.23;;;7.40;;
65206;SDS011;58477;48.072;11.970;2022-12-07T00:18:11;14.27;;;8.95;;
65206;SDS011;58477;48.072;11.970;2022-12-07T00:20:36;10.68;;;7.38;;
65206;SDS011;58477;48.072;11.970;2022-12-07T00:23:02;12.63;;;8.10;;
65206;SDS011;58477;48.072;11.970;2022-12-07T00:25:27;11.48;;;7.47;;
65206;SDS011;58477;48.072;11.970;2022-12-07T00:27:53;12.35;;;7.55;;
65206;SDS011;58477;48.072;11.970;2022-12-07T00:30:21;18.85;;;8.45;;
65206;SDS011;58477;48.072;11.970;2022-12-07T00:32:47;10.07;;;7.25;;
65206;SDS011;58477;48.072;11.970;2022-12-07T00:35:12;10.43;;;6.47;;
65206;SDS011;58477;48.072;11.970;2022-12-07T00:37:38;10.38;;;7.38;;
65206;SDS011;58477;48.072;11.970;2022-12-07T00:40:04;14.23;;;8.10;;
65206;SDS011;58477;48.072;11.970;2022-12-07T00:42:30;10.82;;;6.63;;
65206;SDS011;58477;48.072;11.970;2022-12-07T00:44:55;10.98;;;7.38;;
65206;SDS011;58477;48.072;11.970;2022-12-07T00:47:21;9.80;;;7.28;;
65206;SDS011;58477;48.072;11.970;2022-12-07T00:49:46;11.65;;;7.90;;
65206;SDS011;58477;48.072;11.970;2022-12-07T00:52:12;9.85;;;6.32;;
65206;SDS011;58477;48.072;11.970;2022-12-07T00:54:37;11.07;;;7.28;;
65206;SDS011;58477;48.072;11.970;2022-12-07T00:57:02;10.60;;;7.45;;
65206;SDS011;58477;48.072;11.970;2022-12-07T00:59:28;11.80;;;7.50;;
65206;SDS011;58477;48.072;11.970;2022-12-07T01:01:53;11.98;;;7.68;;
65206;SDS011;58477;48.072;11.970;2022-12-07T01:04:19;12.20;;;8.02;;
65206;SDS011;58477;48.072;11.970;2022-12-07T01:06:44;13.38;;;7.45;;
65206;SDS011;58477;48.072;11.970;2022-12-07T01:09:09;12.68;;;8.13;;
65206;SDS011;58477;48.072;11.970;2022-12-07T01:11:35;11.55;;;7.50;;
65206;SDS011;58477;48.072;11.970;2022-12-07T01:14:00;12.77;;;7.85;;
65206;SDS011;58477;48.072;11.970;2022-12-07T01:16:27;9.52;;;6.80;;
65206;SDS011;58477;48.072;11.970;2022-12-07T01:18:55;13.30;;;8.30;;
65206;SDS011;58477;48.072;11.970;2022-12-07T01:21:22;16.08;;;8.32;;
65206;SDS011;58477;48.072;11.970;2022-12-07T01:23:56;12.27;;;7.40;;
65206;SDS011;58477;48.072;11.970;2022-12-07T01:26:23;12.07;;;8.00;;
65206;SDS011;58477;48.072;11.970;2022-12-07T01:28:50;13.73;;;7.88;;
65206;SDS011;58477;48.072;11.970;2022-12-07T01:31:17;11.27;;;7.28;;
65206;SDS011;58477;48.072;11.970;2022-12-07T01:33:46;12.10;;;7.82;;
65206;SDS011;58477;48.072;11.970;2022-12-07T01:38:44;15.35;;;8.52;;
65206;SDS011;58477;48.072;11.970;2022-12-07T01:41:10;11.25;;;8.20;;
65206;SDS011;58477;48.072;11.970;2022-12-07T01:43:36;13.15;;;8.18;;
65206;SDS011;58477;48.072;11.970;2022-12-07T01:46:02;12.05;;;7.15;;
65206;SDS011;58477;48.072;11.970;2022-12-07T01:48:38;13.25;;;7.55;;
65206;SDS011;58477;48.072;11.970;2022-12-07T01:51:10;13.13;;;8.02;;
65206;SDS011;58477;48.072;11.970;2022-12-07T01:53:39;14.13;;;8.07;;
65206;SDS011;58477;48.072;11.970;2022-12-07T01:56:08;12.05;;;7.63;;
65206;SDS011;58477;48.072;11.970;2022-12-07T01:58:37;13.48;;;7.90;;
65206;SDS011;58477;48.072;11.970;2022-12-07T02:01:03;14.40;;;8.65;;
65206;SDS011;58477;48.072;11.970;2022-12-07T02:03:34;14.13;;;8.43;;
65206;SDS011;58477;48.072;11.970;2022-12-07T02:06:04;16.85;;;8.43;;
65206;SDS011;58477;48.072;11.970;2022-12-07T02:08:30;11.57;;;7.57;;
65206;SDS011;58477;48.072;11.970;2022-12-07T02:10:56;12.52;;;8.65;;
65206;SDS011;58477;48.072;11.970;2022-12-07T02:13:28;15.27;;;8.40;;
65206;SDS011;58477;48.072;11.970;2022-12-07T02:24:25;12.40;;;7.47;;
65206;SDS011;58477;48.072;11.970;2022-12-07T02:30:14;13.27;;;8.45;;
65206;SDS011;58477;48.072;11.970;2022-12-07T02:35:25;12.90;;;7.70;;
65206;SDS011;58477;48.072;11.970;2022-12-07T02:41:24;12.10;;;7.47;;
65206;SDS011;58477;48.072;11.970;2022-12-07T02:46:08;11.77;;;7.88;;
65206;SDS011;58477;48.072;11.970;2022-12-07T02:48:37;12.07;;;8.20;;
65206;SDS011;58477;48.072;11.970;2022-12-07T02:51:04;12.63;;;7.80;;
65206;SDS011;58477;48.072;11.970;2022-12-07T02:53:40;10.48;;;6.95;;
65206;SDS011;58477;48.072;11.970;2022-12-07T02:59:02;13.25;;;7.43;;
65206;SDS011;58477;48.072;11.970;2022-12-07T03:04:40;12.10;;;7.70;;
65206;SDS011;58477;48.072;11.970;2022-12-07T03:12:55;14.80;;;8.70;;
65206;SDS011;58477;48.072;11.970;2022-12-07T03:15:25;15.10;;;7.80;;
65206;SDS011;58477;48.072;11.970;2022-12-07T03:17:58;12.70;;;7.68;;
65206;SDS011;58477;48.072;11.970;2022-12-07T03:20:25;13.32;;;8.18;;
65206;SDS011;58477;48.072;11.970;2022-12-07T03:22:54;13.40;;;7.85;;
65206;SDS011;58477;48.072;11.970;2022-12-07T03:25:20;10.98;;;7.55;;
65206;SDS011;58477;48.072;11.970;2022-12-07T03:30:18;14.70;;;8.25;;
65206;SDS011;58477;48.072;11.970;2022-12-07T03:32:47;16.75;;;8.65;;
65206;SDS011;58477;48.072;11.970;2022-12-07T03:35:31;11.20;;;7.50;;
65206;SDS011;58477;48.072;11.970;2022-12-07T03:38:08;13.02;;;8.55;;
65206;SDS011;58477;48.072;11.970;2022-12-07T03:40:42;10.98;;;7.80;;
65206;SDS011;58477;48.072;11.970;2022-12-07T03:43:14;14.82;;;8.23;;
65206;SDS011;58477;48.072;11.970;2022-12-07T03:45:43;15.18;;;7.95;;
65206;SDS011;58477;48.072;11.970;2022-12-07T03:48:46;12.32;;;7.68;;
65206;SDS011;58477;48.072;11.970;2022-12-07T03:51:46;14.55;;;8.60;;
65206;SDS011;58477;48.072;11.970;2022-12-07T03:54:21;17.33;;;8.57;;
65206;SDS011;58477;48.072;11.970;2022-12-07T03:56:51;15.20;;;8.77;;
65206;SDS011;58477;48.072;11.970;2022-12-07T03:59:18;13.30;;;8.32;;
65206;SDS011;58477;48.072;11.970;2022-12-07T04:01:45;14.13;;;8.57;;
65206;SDS011;58477;48.072;11.970;2022-12-07T04:04:18;13.20;;;8.73;;
65206;SDS011;58477;48.072;11.970;2022-12-07T04:06:44;13.43;;;8.68;;
65206;SDS011;58477;48.072;11.970;2022-12-07T04:09:09;15.88;;;8.40;;
65206;SDS011;58477;48.072;11.970;2022-12-07T04:11:34;12.82;;;8.63;;
65206;SDS011;58477;48.072;11.970;2022-12-07T04:14:00;13.40;;;8.48;;
65206;SDS011;58477;48.072;11.970;2022-12-07T04:16:53;14.95;;;9.13;;
65206;SDS011;58477;48.072;11.970;2022-12-07T04:19:24;13.23;;;8.70;;
65206;SDS011;58477;48.072;11.970;2022-12-07T04:21:54;14.23;;;8.13;;
65206;SDS011;58477;48.072;11.970;2022-12-07T04:24:20;17.63;;;9.38;;
65206;SDS011;58477;48.072;11.970;2022-12-07T04:26:46;14.02;;;8.93;;
65206;SDS011;58477;48.072;11.970;2022-12-07T04:29:12;14.43;;;9.30;;
65206;SDS011;58477;48.072;11.970;2022-12-07T04:31:39;14.73;;;9.02;;
65206;SDS011;58477;48.072;11.970;2022-12-07T04:34:05;14.35;;;9.52;;
65206;SDS011;58477;48.072;11.970;2022-12-07T04:36:31;13.40;;;8.45;;
65206;SDS011;58477;48.072;11.970;2022-12-07T04:38:57;13.75;;;8.70;;
65206;SDS011;58477;48.072;11.970;2022-12-07T04:41:23;13.80;;;8.65;;
65206;SDS011;58477;48.072;11.970;2022-12-07T04:44:00;14.05;;;8.77;;
65206;SDS011;58477;48.072;11.970;2022-12-07T04:46:27;13.50;;;8.38;;
65206;SDS011;58477;48.072;11.970;2022-12-07T04:48:53;15.25;;;8.90;;
65206;SDS011;58477;48.072;11.970;2022-12-07T04:51:21;16.00;;;9.20;;
65206;SDS011;58477;48.072;11.970;2022-12-07T04:53:48;15.45;;;9.15;;
65206;SDS011;58477;48.072;11.970;2022-12-07T04:56:14;15.27;;;9.80;;
65206;SDS011;58477;48.072;11.970;2022-12-07T04:58:41;15.07;;;9.57;;
65206;SDS011;58477;48.072;11.970;2022-12-07T05:01:08;14.90;;;9.18;;
65206;SDS011;58477;48.072;11.970;2022-12-07T05:03:34;14.75;;;9.23;;
65206;SDS011;58477;48.072;11.970;2022-12-07T05:06:00;14.77;;;9.57;;
65206;SDS011;58477;48.072;11.970;2022-12-07T05:08:26;15.57;;;9.93;;
65206;SDS011;58477;48.072;11.970;2022-12-07T05:10:51;15.63;;;10.18;;
65206;SDS011;58477;48.072;11.970;2022-12-07T05:13:17;17.42;;;10.30;;
65206;SDS011;58477;48.072;11.970;2022-12-07T05:15:42;18.30;;;11.02;;
65206;SDS011;58477;48.072;11.970;2022-12-07T05:18:09;16.25;;;9.55;;
65206;SDS011;58477;48.072;11.970;2022-12-07T05:20:40;14.65;;;9.50;;
65206;SDS011;58477;48.072;11.970;2022-12-07T05:23:07;19.52;;;10.25;;
65206;SDS011;58477;48.072;11.970;2022-12-07T05:25:32;15.68;;;10.32;;
65206;SDS011;58477;48.072;11.970;2022-12-07T05:27:58;15.52;;;10.35;;
65206;SDS011;58477;48.072;11.970;2022-12-07T05:30:24;15.20;;;10.57;;
65206;SDS011;58477;48.072;11.970;2022-12-07T05:32:50;16.13;;;10.27;;
65206;SDS011;58477;48.072;11.970;2022-12-07T05:35:16;16.77;;;10.13;;
65206;SDS011;58477;48.072;11.970;2022-12-07T05:37:42;15.10;;;10.43;;
65206;SDS011;58477;48.072;11.970;2022-12-07T05:40:08;17.60;;;10.88;;
65206;SDS011;58477;48.072;11.970;2022-12-07T05:42:35;17.55;;;11.30;;
65206;SDS011;58477;48.072;11.970;2022-12-07T05:45:00;18.90;;;11.57;;
65206;SDS011;58477;48.072;11.970;2022-12-07T05:47:26;20.88;;;11.32;;
65206;SDS011;58477;48.072;11.970;2022-12-07T05:49:51;17.38;;;11.30;;
65206;SDS011;58477;48.072;11.970;2022-12-07T05:52:17;17.77;;;11.15;;
65206;SDS011;58477;48.072;11.970;2022-12-07T05:54:42;23.35;;;10.60;;
65206;SDS011;58477;48.072;11.970;2022-12-07T05:57:08;19.98;;;10.70;;
65206;SDS011;58477;48.072;11.970;2022-12-07T05:59:33;17.13;;;10.90;;
65206;SDS011;58477;48.072;11.970;2022-12-07T06:02:00;18.45;;;11.70;;
65206;SDS011;58477;48.072;11.970;2022-12-07T06:04:32;21.50;;;11.73;;
65206;SDS011;58477;48.072;11.970;2022-12-07T06:07:05;20.38;;;12.10;;
65206;SDS011;58477;48.072;11.970;2022-12-07T06:09:31;21.15;;;10.80;;
65206;SDS011;58477;48.072;11.970;2022-12-07T06:11:57;21.00;;;12.07;;
65206;SDS011;58477;48.072;11.970;2022-12-07T06:14:42;19.40;;;11.13;;
65206;SDS011;58477;48.072;11.970;2022-12-07T06:17:08;21.48;;;12.60;;
65206;SDS011;58477;48.072;11.970;2022-12-07T06:19:34;20.48;;;12.02;;
65206;SDS011;58477;48.072;11.970;2022-12-07T06:22:00;21.85;;;11.95;;
65206;SDS011;58477;48.072;11.970;2022-12-07T06:24:26;20.05;;;11.07;;
65206;SDS011;58477;48.072;11.970;2022-12-07T06:26:51;22.20;;;12.98;;
65206;SDS011;58477;48.072;11.970;2022-12-07T06:29:17;19.92;;;10.82;;
65206;SDS011;58477;48.072;11.970;2022-12-07T06:31:43;18.80;;;11.82;;
65206;SDS011;58477;48.072;11.970;2022-12-07T06:34:10;19.20;;;11.60;;
65206;SDS011;58477;48.072;11.970;2022-12-07T06:36:40;23.10;;;12.77;;
65206;SDS011;58477;48.072;11.970;2022-12-07T06:39:06;18.13;;;11.38;;
65206;SDS011;58477;48.072;11.970;2022-12-07T06:41:34;18.45;;;10.63;;
65206;SDS011;58477;48.072;11.970;2022-12-07T06:44:01;18.33;;;11.23;;
65206;SDS011;58477;48.072;11.970;2022-12-07T06:46:27;23.83;;;12.50;;
65206;SDS011;58477;48.072;11.970;2022-12-07T06:48:52;22.48;;;11.77;;
65206;SDS011;58477;48.072;11.970;2022-12-07T06:51:18;25.40;;;12.02;;
65206;SDS011;58477;48.072;11.970;2022-12-07T06:53:44;20.17;;;11.60;;
65206;SDS011;58477;48.072;11.970;2022-12-07T06:56:09;20.40;;;12.23;;
65206;SDS011;58477;48.072;11.970;2022-12-07T06:58:36;21.88;;;11.05;;
65206;SDS011;58477;48.072;11.970;2022-12-07T07:01:02;17.75;;;11.02;;
65206;SDS011;58477;48.072;11.970;2022-12-07T07:03:28;17.23;;;11.18;;
65206;SDS011;58477;48.072;11.970;2022-12-07T07:05:53;20.63;;;12.05;;
65206;SDS011;58477;48.072;11.970;2022-12-07T07:08:19;17.27;;;11.00;;
65206;SDS011;58477;48.072;11.970;2022-12-07T07:10:44;21.17;;;10.75;;
65206;SDS011;58477;48.072;11.970;2022-12-07T07:13:09;19.77;;;10.70;;
65206;SDS011;58477;48.072;11.970;2022-12-07T07:15:37;18.90;;;10.85;;
65206;SDS011;58477;48.072;11.970;2022-12-07T07:18:03;19.35;;;10.93;;
65206;SDS011;58477;48.072;11.970;2022-12-07T07:20:29;21.20;;;11.55;;
65206;SDS011;58477;48.072;11.970;2022-12-07T07:22:55;21.30;;;11.73;;
65206;SDS011;58477;48.072;11.970;2022-12-07T07:25:21;16.85;;;10.73;;
65206;SDS011;58477;48.072;11.970;2022-12-07T07:27:46;20.08;;;11.90;;
65206;SDS011;58477;48.072;11.970;2022-12-07T07:30:12;16.42;;;11.05;;
65206;SDS011;58477;48.072;11.970;2022-12-07T07:32:37;20.98;;;11.45;;
65206;SDS011;58477;48.072;11.970;2022-12-07T07:35:03;19.75;;;11.48;;
65206;SDS011;58477;48.072;11.970;2022-12-07T07:37:29;23.65;;;13.27;;
65206;SDS011;58477;48.072;11.970;2022-12-07T07:39:54;24.73;;;13.68;;
65206;SDS011;58477;48.072;11.970;2022-12-07T07:42:20;24.90;;;13.70;;
65206;SDS011;58477;48.072;11.970;2022-12-07T07:44:45;18.10;;;11.55;;
65206;SDS011;58477;48.072;11.970;2022-12-07T07:47:10;19.23;;;10.90;;
65206;SDS011;58477;48.072;11.970;2022-12-07T07:49:36;18.60;;;11.38;;
65206;SDS011;58477;48.072;11.970;2022-12-07T07:52:01;18.00;;;11.30;;
65206;SDS011;58477;48.072;11.970;2022-12-07T07:54:27;21.48;;;10.95;;
65206;SDS011;58477;48.072;11.970;2022-12-07T07:56:53;20.48;;;11.27;;
65206;SDS011;58477;48.072;11.970;2022-12-07T07:59:18;15.55;;;9.82;;
65206;SDS011;58477;48.072;11.970;2022-12-07T08:01:44;16.38;;;10.32;;
65206;SDS011;58477;48.072;11.970;2022-12-07T08:04:09;16.25;;;10.70;;
65206;SDS011;58477;48.072;11.970;2022-12-07T08:06:35;18.80;;;10.30;;
65206;SDS011;58477;48.072;11.970;2022-12-07T08:09:00;19.27;;;9.68;;
65206;SDS011;58477;48.072;11.970;2022-12-07T08:11:26;14.77;;;9.45;;
65206;SDS011;58477;48.072;11.970;2022-12-07T08:13:51;17.50;;;10.07;;
65206;SDS011;58477;48.072;11.970;2022-12-07T08:16:17;13.30;;;8.60;;
65206;SDS011;58477;48.072;11.970;2022-12-07T08:18:42;15.93;;;9.77;;
65206;SDS011;58477;48.072;11.970;2022-12-07T08:21:12;15.25;;;9.70;;
65206;SDS011;58477;48.072;11.970;2022-12-07T08:23:39;15.40;;;10.30;;
65206;SDS011;58477;48.072;11.970;2022-12-07T08:26:05;14.30;;;10.25;;
65206;SDS011;58477;48.072;11.970;2022-12-07T08:28:32;18.85;;;9.93;;
65206;SDS011;58477;48.072;11.970;2022-12-07T08:31:01;13.25;;;8.75;;
65206;SDS011;58477;48.072;11.970;2022-12-07T08:33:29;16.52;;;9.95;;
65206;SDS011;58477;48.072;11.970;2022-12-07T08:35:59;16.92;;;9.68;;
65206;SDS011;58477;48.072;11.970;2022-12-07T08:38:34;14.98;;;9.23;;
65206;SDS011;58477;48.072;11.970;2022-12-07T08:41:00;14.15;;;9.13;;
65206;SDS011;58477;48.072;11.970;2022-12-07T08:43:26;13.02;;;8.60;;
65206;SDS011;58477;48.072;11.970;2022-12-07T08:46:08;17.05;;;9.30;;
65206;SDS011;58477;48.072;11.970;2022-12-07T08:48:39;15.65;;;10.32;;
65206;SDS011;58477;48.072;11.970;2022-12-07T08:51:09;10.90;;;7.80;;
65206;SDS011;58477;48.072;11.970;2022-12-07T08:53:35;14.98;;;9.23;;
65206;SDS011;58477;48.072;11.970;2022-12-07T08:56:03;12.68;;;8.70;;
65206;SDS011;58477;48.072;11.970;2022-12-07T08:58:30;9.60;;;6.65;;
65206;SDS011;58477;48.072;11.970;2022-12-07T09:00:56;12.73;;;8.98;;
65206;SDS011;58477;48.072;11.970;2022-12-07T09:03:22;15.18;;;8.60;;
65206;SDS011;58477;48.072;11.970;2022-12-07T09:05:47;7.85;;;6.32;;
65206;SDS011;58477;48.072;11.970;2022-12-07T09:08:13;10.63;;;7.43;;
65206;SDS011;58477;48.072;11.970;2022-12-07T09:10:38;12.27;;;8.35;;
65206;SDS011;58477;48.072;11.970;2022-12-07T09:13:04;11.82;;;7.55;;
65206;SDS011;58477;48.072;11.970;2022-12-07T09:15:29;9.13;;;6.28;;
65206;SDS011;58477;48.072;11.970;2022-12-07T09:17:56;10.90;;;7.03;;
65206;SDS011;58477;48.072;11.970;2022-12-07T09:20:22;10.77;;;7.28;;
65206;SDS011;58477;48.072;11.970;2022-12-07T09:22:48;9.25;;;6.85;;
65206;SDS011;58477;48.072;11.970;2022-12-07T09:25:13;9.38;;;7.05;;
65206;SDS011;58477;48.072;11.970;2022-12-07T09:27:39;9.23;;;6.63;;
65206;SDS011;58477;48.072;11.970;2022-12-07T09:30:05;9.13;;;6.47;;
65206;SDS011;58477;48.072;11.970;2022-12-07T09:32:31;8.57;;;5.70;;
65206;SDS011;58477;48.072;11.970;2022-12-07T09:34:56;7.55;;;5.28;;
65206;SDS011;58477;48.072;11.970;2022-12-07T09:37:22;9.57;;;6.38;;
65206;SDS011;58477;48.072;11.970;2022-12-07T09:39:47;7.63;;;5.85;;
65206;SDS011;58477;48.072;11.970;2022-12-07T09:42:29;7.38;;;5.30;;
65206;SDS011;58477;48.072;11.970;2022-12-07T09:44:58;7.57;;;5.63;;
65206;SDS011;58477;48.072;11.970;2022-12-07T09:47:25;7.70;;;5.40;;
65206;SDS011;58477;48.072;11.970;2022-12-07T09:49:51;12.32;;;5.32;;
65206;SDS011;58477;48.072;11.970;2022-12-07T09:52:21;8.63;;;6.18;;
65206;SDS011;58477;48.072;11.970;2022-12-07T09:54:51;7.50;;;5.73;;
65206;SDS011;58477;48.072;11.970;2022-12-07T09:57:17;8.45;;;5.78;;
65206;SDS011;58477;48.072;11.970;2022-12-07T09:59:46;6.80;;;5.47;;
65206;SDS011;58477;48.072;11.970;2022-12-07T10:02:25;3.97;;;3.58;;
65206;SDS011;58477;48.072;11.970;2022-12-07T10:04:59;6.18;;;5.15;;
65206;SDS011;58477;48.072;11.970;2022-12-07T10:07:25;9.02;;;6.22;;
65206;SDS011;58477;48.072;11.970;2022-12-07T10:09:51;9.57;;;6.07;;
65206;SDS011;58477;48.072;11.970;2022-12-07T10:12:16;8.30;;;5.05;;
65206;SDS011;58477;48.072;11.970;2022-12-07T10:14:55;7.40;;;5.45;;
65206;SDS011;58477;48.072;11.970;2022-12-07T10:17:29;6.93;;;5.15;;
65206;SDS011;58477;48.072;11.970;2022-12-07T10:20:22;9.32;;;5.53;;
65206;SDS011;58477;48.072;11.970;2022-12-07T10:22:54;7.10;;;5.63;;
65206;SDS011;58477;48.072;11.970;2022-12-07T10:25:20;6.72;;;5.13;;
65206;SDS011;58477;48.072;11.970;2022-12-07T10:27:57;8.30;;;6.15;;
65206;SDS011;58477;48.072;11.970;2022-12-07T10:30:46;8.85;;;5.85;;
65206;SDS011;58477;48.072;11.970;2022-12-07T10:33:37;8.82;;;5.78;;
65206;SDS011;58477;48.072;11.970;2022-12-07T10:39:10;7.28;;;4.50;;
65206;SDS011;58477;48.072;11.970;2022-12-07T10:41:43;7.18;;;5.25;;
65206;SDS011;58477;48.072;11.970;2022-12-07T10:44:22;6.18;;;5.25;;
65206;SDS011;58477;48.072;11.970;2022-12-07T10:52:39;7.85;;;5.28;;
65206;SDS011;58477;48.072;11.970;2022-12-07T11:04:30;7.43;;;5.78;;
65206;SDS011;58477;48.072;11.970;2022-12-07T11:26:34;8.82;;;6.47;;
65206;SDS011;58477;48.072;11.970;2022-12-07T11:37:40;8.07;;;5.20;;
65206;SDS011;58477;48.072;11.970;2022-12-07T11:40:17;7.70;;;5.32;;
65206;SDS011;58477;48.072;11.970;2022-12-07T11:42:51;8.10;;;4.80;;
65206;SDS011;58477;48.072;11.970;2022-12-07T11:45:24;7.78;;;5.18;;
65206;SDS011;58477;48.072;11.970;2022-12-07T11:50:34;6.13;;;5.25;;
65206;SDS011;58477;48.072;11.970;2022-12-07T11:53:10;4.07;;;3.67;;
65206;SDS011;58477;48.072;11.970;2022-12-07T12:01:19;7.25;;;5.50;;
65206;SDS011;58477;48.072;11.970;2022-12-07T12:06:35;8.10;;;4.50;;
65206;SDS011;58477;48.072;11.970;2022-12-07T12:09:45;4.82;;;3.95;;
65206;SDS011;58477;48.072;11.970;2022-12-07T12:22:43;6.22;;;4.47;;
65206;SDS011;58477;48.072;11.970;2022-12-07T12:26:00;3.83;;;3.42;;
65206;SDS011;58477;48.072;11.970;2022-12-07T12:28:18;3.83;;;2.70;;
65206;SDS011;58477;48.072;11.970;2022-12-07T12:30:47;7.53;;;4.80;;
65206;SDS011;58477;48.072;11.970;2022-12-07T12:33:30;9.80;;;6.22;;
65206;SDS011;58477;48.072;11.970;2022-12-07T12:46:53;7.90;;;5.05;;
65206;SDS011;58477;48.072;11.970;2022-12-07T12:54:35;6.72;;;5.22;;
65206;SDS011;58477;48.072;11.970;2022-12-07T13:10:54;8.23;;;5.93;;
65206;SDS011;58477;48.072;11.970;2022-12-07T13:15:46;6.85;;;5.25;;
65206;SDS011;58477;48.072;11.970;2022-12-07T13:20:58;7.95;;;4.97;;
65206;SDS011;58477;48.072;11.970;2022-12-07T13:26:18;11.45;;;5.95;;
65206;SDS011;58477;48.072;11.970;2022-12-07T13:36:55;6.70;;;5.35;;
65206;SDS011;58477;48.072;11.970;2022-12-07T13:39:23;6.90;;;5.22;;
65206;SDS011;58477;48.072;11.970;2022-12-07T13:41:51;7.50;;;5.93;;
65206;SDS011;58477;48.072;11.970;2022-12-07T13:44:18;7.80;;;5.65;;
65206;SDS011;58477;48.072;11.970;2022-12-07T13:49:48;7.45;;;5.97;;
65206;SDS011;58477;48.072;11.970;2022-12-07T13:52:26;8.27;;;6.25;;
65206;SDS011;58477;48.072;11.970;2022-12-07T13:57:21;8.70;;;5.82;;
65206;SDS011;58477;48.072;11.970;2022-12-07T13:59:47;9.27;;;6.07;;
65206;SDS011;58477;48.072;11.970;2022-12-07T14:02:24;8.82;;;5.60;;
65206;SDS011;58477;48.072;11.970;2022-12-07T14:04:50;7.35;;;5.68;;
65206;SDS011;58477;48.072;11.970;2022-12-07T14:09:55;7.93;;;5.75;;
65206;SDS011;58477;48.072;11.970;2022-12-07T14:12:23;8.32;;;6.07;;
65206;SDS011;58477;48.072;11.970;2022-12-07T14:14:50;6.47;;;4.53;;
65206;SDS011;58477;48.072;11.970;2022-12-07T14:17:19;10.80;;;7.05;;
65206;SDS011;58477;48.072;11.970;2022-12-07T14:22:18;12.95;;;7.07;;
65206;SDS011;58477;48.072;11.970;2022-12-07T14:24:47;10.05;;;6.35;;
65206;SDS011;58477;48.072;11.970;2022-12-07T14:27:22;12.80;;;7.05;;
65206;SDS011;58477;48.072;11.970;2022-12-07T14:29:51;8.93;;;6.90;;
65206;SDS011;58477;48.072;11.970;2022-12-07T14:32:24;12.32;;;7.15;;
65206;SDS011;58477;48.072;11.970;2022-12-07T14:34:58;10.73;;;7.13;;
65206;SDS011;58477;48.072;11.970;2022-12-07T14:37:25;10.65;;;7.00;;
65206;SDS011;58477;48.072;11.970;2022-12-07T14:39:51;9.38;;;6.30;;
65206;SDS011;58477;48.072;11.970;2022-12-07T14:42:17;9.95;;;6.80;;
65206;SDS011;58477;48.072;11.970;2022-12-07T14:44:43;7.82;;;5.88;;
65206;SDS011;58477;48.072;11.970;2022-12-07T14:47:09;10.65;;;6.55;;
65206;SDS011;58477;48.072;11.970;2022-12-07T14:49:36;10.07;;;6.65;;
65206;SDS011;58477;48.072;11.970;2022-12-07T14:52:01;8.75;;;6.13;;
65206;SDS011;58477;48.072;11.970;2022-12-07T14:54:27;9.45;;;6.53;;
65206;SDS011;58477;48.072;11.970;2022-12-07T14:56:55;10.35;;;6.60;;
65206;SDS011;58477;48.072;11.970;2022-12-07T14:59:21;11.00;;;6.13;;
65206;SDS011;58477;48.072;11.970;2022-12-07T15:01:46;9.18;;;5.93;;
65206;SDS011;58477;48.072;11.970;2022-12-07T15:04:12;9.48;;;6.47;;
65206;SDS011;58477;48.072;11.970;2022-12-07T15:06:37;11.10;;;6.90;;
65206;SDS011;58477;48.072;11.970;2022-12-07T15:09:03;10.82;;;7.47;;
65206;SDS011;58477;48.072;11.970;2022-12-07T15:11:29;11.65;;;7.75;;
65206;SDS011;58477;48.072;11.970;2022-12-07T15:13:55;14.35;;;7.05;;
65206;SDS011;58477;48.072;11.970;2022-12-07T15:16:32;10.35;;;7.30;;
65206;SDS011;58477;48.072;11.970;2022-12-07T15:18:58;10.50;;;6.60;;
65206;SDS011;58477;48.072;11.970;2022-12-07T15:21:23;12.48;;;7.57;;
65206;SDS011;58477;48.072;11.970;2022-12-07T15:23:49;11.02;;;7.75;;
65206;SDS011;58477;48.072;11.970;2022-12-07T15:26:15;10.68;;;6.40;;
65206;SDS011;58477;48.072;11.970;2022-12-07T15:28:41;10.70;;;7.07;;
65206;SDS011;58477;48.072;11.970;2022-12-07T15:31:16;12.05;;;7.32;;
65206;SDS011;58477;48.072;11.970;2022-12-07T15:33:43;10.35;;;7.05;;
65206;SDS011;58477;48.072;11.970;2022-12-07T15:36:12;10.07;;;7.03;;
65206;SDS011;58477;48.072;11.970;2022-12-07T15:38:46;11.20;;;6.95;;
65206;SDS011;58477;48.072;11.970;2022-12-07T15:41:12;9.52;;;6.88;;
65206;SDS011;58477;48.072;11.970;2022-12-07T15:43:38;11.15;;;7.13;;
65206;SDS011;58477;48.072;11.970;2022-12-07T15:46:22;11.07;;;7.20;;
65206;SDS011;58477;48.072;11.970;2022-12-07T15:48:47;13.88;;;7.68;;
65206;SDS011;58477;48.072;11.970;2022-12-07T15:51:13;15.80;;;7.38;;
65206;SDS011;58477;48.072;11.970;2022-12-07T15:53:38;10.55;;;7.35;;
65206;SDS011;58477;48.072;11.970;2022-12-07T15:56:07;11.52;;;7.28;;
65206;SDS011;58477;48.072;11.970;2022-12-07T15:58:33;9.25;;;6.30;;
65206;SDS011;58477;48.072;11.970;2022-12-07T16:00:59;11.80;;;7.78;;
65206;SDS011;58477;48.072;11.970;2022-12-07T16:03:26;10.73;;;7.43;;
65206;SDS011;58477;48.072;11.970;2022-12-07T16:05:52;12.57;;;7.60;;
65206;SDS011;58477;48.072;11.970;2022-12-07T16:08:18;9.55;;;7.00;;
65206;SDS011;58477;48.072;11.970;2022-12-07T16:10:44;14.07;;;8.20;;
65206;SDS011;58477;48.072;11.970;2022-12-07T16:13:10;13.05;;;7.57;;
65206;SDS011;58477;48.072;11.970;2022-12-07T16:15:42;12.10;;;7.55;;
65206;SDS011;58477;48.072;11.970;2022-12-07T16:18:07;13.13;;;7.93;;
65206;SDS011;58477;48.072;11.970;2022-12-07T16:20:33;12.27;;;8.48;;
65206;SDS011;58477;48.072;11.970;2022-12-07T16:22:59;10.93;;;7.22;;
65206;SDS011;58477;48.072;11.970;2022-12-07T16:25:25;13.30;;;8.27;;
65206;SDS011;58477;48.072;11.970;2022-12-07T16:27:51;11.15;;;7.35;;
65206;SDS011;58477;48.072;11.970;2022-12-07T16:30:17;13.27;;;8.52;;
65206;SDS011;58477;48.072;11.970;2022-12-07T16:32:43;14.10;;;8.02;;
65206;SDS011;58477;48.072;11.970;2022-12-07T16:35:09;13.27;;;8.43;;
65206;SDS011;58477;48.072;11.970;2022-12-07T16:37:35;17.83;;;8.55;;
65206;SDS011;58477;48.072;11.970;2022-12-07T16:40:01;14.65;;;8.63;;
65206;SDS011;58477;48.072;11.970;2022-12-07T16:42:34;16.02;;;8.35;;
65206;SDS011;58477;48.072;11.970;2022-12-07T16:45:01;14.07;;;9.15;;
65206;SDS011;58477;48.072;11.970;2022-12-07T16:47:27;17.13;;;9.38;;
65206;SDS011;58477;48.072;11.970;2022-12-07T16:49:52;14.80;;;8.90;;
65206;SDS011;58477;48.072;11.970;2022-12-07T16:52:18;11.43;;;7.68;;
65206;SDS011;58477;48.072;11.970;2022-12-07T16:54:45;12.55;;;7.95;;
65206;SDS011;58477;48.072;11.970;2022-12-07T16:57:12;13.25;;;8.60;;
65206;SDS011;58477;48.072;11.970;2022-12-07T16:59:38;15.82;;;9.13;;
65206;SDS011;58477;48.072;11.970;2022-12-07T17:02:03;15.18;;;8.70;;
65206;SDS011;58477;48.072;11.970;2022-12-07T17:04:29;15.90;;;9.63;;
65206;SDS011;58477;48.072;11.970;2022-12-07T17:06:54;21.00;;;10.10;;
65206;SDS011;58477;48.072;11.970;2022-12-07T17:09:20;17.00;;;9.55;;